sensor_id;sensor_type;location;lat;lon;timestamp;P1;durP1;ratioP1;P2;durP2;ratioP2
10985;SDS011;5546;48.714;8.738;2023-09-07T00:00:09;7.30;;;5.73;;
10985;SDS011;5546;48.714;8.738;2023-09-07T00:02:35;8.87;;;5.80;;
10985;SDS011;5546;48.714;8.738;2023-09-07T00:05:01;7.03;;;6.17;;
10985;SDS011;5546;48.714;8.738;2023-09-07T00:07:27;8.33;;;6.17;;
10985;SDS011;5546;48.714;8.738;2023-09-07T00:09:52;6.53;;;5.70;;
10985;SDS011;5546;48.714;8.738;2023-09-07T00:12:18;7.33;;;5.63;;
10985;SDS011;5546;48.714;8.738;2023-09-07T00:14:43;6.50;;;5.33;;
10985;SDS011;5546;48.714;8.738;2023-09-07T00:17:10;6.70;;;5.53;;
10985;SDS011;5546;48.714;8.738;2023-09-07T00:19:35;4.87;;;4.43;;
10985;SDS011;5546;48.714;8.738;2023-09-07T00:22:02;6.73;;;5.40;;
10985;SDS011;5546;48.714;8.738;2023-09-07T00:24:28;7.47;;;4.97;;
10985;SDS011;5546;48.714;8.738;2023-09-07T00:26:54;6.90;;;5.50;;
10985;SDS011;5546;48.714;8.738;2023-09-07T00:29:20;6.07;;;5.10;;
10985;SDS011;5546;48.714;8.738;2023-09-07T00:31:45;9.47;;;5.90;;
10985;SDS011;5546;48.714;8.738;2023-09-07T00:34:11;5.93;;;5.33;;
10985;SDS011;5546;48.714;8.738;2023-09-07T00:36:36;7.60;;;5.60;;
10985;SDS011;5546;48.714;8.738;2023-09-07T00:39:02;6.17;;;5.00;;
10985;SDS011;5546;48.714;8.738;2023-09-07T00:41:27;8.70;;;5.80;;
10985;SDS011;5546;48.714;8.738;2023-09-07T00:43:53;5.77;;;5.20;;
10985;SDS011;5546;48.714;8.738;2023-09-07T00:46:18;6.07;;;5.37;;
10985;SDS011;5546;48.714;8.738;2023-09-07T00:48:45;6.07;;;5.47;;
10985;SDS011;5546;48.714;8.738;2023-09-07T00:51:11;6.33;;;5.53;;
10985;SDS011;5546;48.714;8.738;2023-09-07T00:53:37;6.37;;;5.77;;
10985;SDS011;5546;48.714;8.738;2023-09-07T00:56:03;8.00;;;5.43;;
10985;SDS011;5546;48.714;8.738;2023-09-07T00:58:29;6.70;;;5.60;;
10985;SDS011;5546;48.714;8.738;2023-09-07T01:00:55;9.23;;;5.70;;
10985;SDS011;5546;48.714;8.738;2023-09-07T01:03:20;7.70;;;5.60;;
10985;SDS011;5546;48.714;8.738;2023-09-07T01:08:29;6.07;;;5.47;;
10985;SDS011;5546;48.714;8.738;2023-09-07T01:11:14;7.20;;;5.40;;
10985;SDS011;5546;48.714;8.738;2023-09-07T01:13:41;6.40;;;5.27;;
10985;SDS011;5546;48.714;8.738;2023-09-07T01:16:07;6.03;;;5.43;;
10985;SDS011;5546;48.714;8.738;2023-09-07T01:18:34;6.10;;;5.10;;
10985;SDS011;5546;48.714;8.738;2023-09-07T01:21:03;6.63;;;5.30;;
10985;SDS011;5546;48.714;8.738;2023-09-07T01:23:32;5.43;;;4.93;;
10985;SDS011;5546;48.714;8.738;2023-09-07T01:26:00;7.97;;;5.10;;
10985;SDS011;5546;48.714;8.738;2023-09-07T01:28:25;7.90;;;5.10;;
10985;SDS011;5546;48.714;8.738;2023-09-07T01:30:51;7.33;;;5.00;;
10985;SDS011;5546;48.714;8.738;2023-09-07T01:33:17;5.30;;;4.80;;
10985;SDS011;5546;48.714;8.738;2023-09-07T01:35:43;7.77;;;5.10;;
10985;SDS011;5546;48.714;8.738;2023-09-07T01:38:09;6.73;;;4.90;;
10985;SDS011;5546;48.714;8.738;2023-09-07T01:40:35;7.90;;;5.70;;
10985;SDS011;5546;48.714;8.738;2023-09-07T01:43:00;5.23;;;4.73;;
10985;SDS011;5546;48.714;8.738;2023-09-07T01:45:26;5.77;;;5.27;;
10985;SDS011;5546;48.714;8.738;2023-09-07T01:47:51;5.40;;;4.90;;
10985;SDS011;5546;48.714;8.738;2023-09-07T01:50:17;5.13;;;4.73;;
10985;SDS011;5546;48.714;8.738;2023-09-07T01:52:45;7.27;;;5.63;;
10985;SDS011;5546;48.714;8.738;2023-09-07T01:55:13;8.93;;;5.07;;
10985;SDS011;5546;48.714;8.738;2023-09-07T01:57:39;6.77;;;4.70;;
10985;SDS011;5546;48.714;8.738;2023-09-07T02:00:04;8.70;;;4.83;;
10985;SDS011;5546;48.714;8.738;2023-09-07T02:02:30;5.80;;;5.13;;
10985;SDS011;5546;48.714;8.738;2023-09-07T02:04:56;7.50;;;4.70;;
10985;SDS011;5546;48.714;8.738;2023-09-07T02:07:22;6.80;;;5.00;;
10985;SDS011;5546;48.714;8.738;2023-09-07T02:09:47;5.30;;;4.80;;
10985;SDS011;5546;48.714;8.738;2023-09-07T02:12:13;5.90;;;5.30;;
10985;SDS011;5546;48.714;8.738;2023-09-07T02:14:38;4.83;;;4.33;;
10985;SDS011;5546;48.714;8.738;2023-09-07T02:17:04;5.63;;;4.63;;
10985;SDS011;5546;48.714;8.738;2023-09-07T02:19:29;6.90;;;4.80;;
10985;SDS011;5546;48.714;8.738;2023-09-07T02:21:55;5.73;;;4.57;;
10985;SDS011;5546;48.714;8.738;2023-09-07T02:24:20;6.00;;;4.70;;
10985;SDS011;5546;48.714;8.738;2023-09-07T02:26:46;5.10;;;4.70;;
10985;SDS011;5546;48.714;8.738;2023-09-07T02:29:12;5.90;;;4.70;;
10985;SDS011;5546;48.714;8.738;2023-09-07T02:31:38;5.33;;;4.83;;
10985;SDS011;5546;48.714;8.738;2023-09-07T02:34:04;6.20;;;5.00;;
10985;SDS011;5546;48.714;8.738;2023-09-07T02:36:30;8.53;;;5.00;;
10985;SDS011;5546;48.714;8.738;2023-09-07T02:38:55;6.40;;;4.90;;
10985;SDS011;5546;48.714;8.738;2023-09-07T02:41:21;8.13;;;4.83;;
10985;SDS011;5546;48.714;8.738;2023-09-07T02:43:46;8.20;;;4.90;;
10985;SDS011;5546;48.714;8.738;2023-09-07T02:46:12;5.43;;;4.93;;
10985;SDS011;5546;48.714;8.738;2023-09-07T02:48:37;8.30;;;5.37;;
10985;SDS011;5546;48.714;8.738;2023-09-07T02:51:03;9.90;;;5.23;;
10985;SDS011;5546;48.714;8.738;2023-09-07T02:53:29;5.67;;;5.17;;
10985;SDS011;5546;48.714;8.738;2023-09-07T02:55:54;8.47;;;5.23;;
10985;SDS011;5546;48.714;8.738;2023-09-07T02:58:21;7.93;;;5.33;;
10985;SDS011;5546;48.714;8.738;2023-09-07T03:00:47;6.27;;;5.20;;
10985;SDS011;5546;48.714;8.738;2023-09-07T03:03:13;6.93;;;5.27;;
10985;SDS011;5546;48.714;8.738;2023-09-07T03:05:42;6.80;;;5.50;;
10985;SDS011;5546;48.714;8.738;2023-09-07T03:08:08;8.13;;;5.43;;
10985;SDS011;5546;48.714;8.738;2023-09-07T03:10:37;6.27;;;5.20;;
10985;SDS011;5546;48.714;8.738;2023-09-07T03:13:04;6.00;;;5.00;;
10985;SDS011;5546;48.714;8.738;2023-09-07T03:15:33;6.13;;;5.10;;
10985;SDS011;5546;48.714;8.738;2023-09-07T03:17:59;6.50;;;5.20;;
10985;SDS011;5546;48.714;8.738;2023-09-07T03:20:25;5.23;;;4.73;;
10985;SDS011;5546;48.714;8.738;2023-09-07T03:22:51;5.07;;;4.63;;
10985;SDS011;5546;48.714;8.738;2023-09-07T03:25:16;7.87;;;5.07;;
10985;SDS011;5546;48.714;8.738;2023-09-07T03:27:42;7.10;;;4.83;;
10985;SDS011;5546;48.714;8.738;2023-09-07T03:30:08;5.53;;;5.03;;
10985;SDS011;5546;48.714;8.738;2023-09-07T03:32:33;5.60;;;5.10;;
10985;SDS011;5546;48.714;8.738;2023-09-07T03:34:59;5.60;;;5.00;;
10985;SDS011;5546;48.714;8.738;2023-09-07T03:37:28;6.23;;;5.03;;
10985;SDS011;5546;48.714;8.738;2023-09-07T03:39:53;5.83;;;5.20;;
10985;SDS011;5546;48.714;8.738;2023-09-07T03:42:20;5.83;;;5.10;;
10985;SDS011;5546;48.714;8.738;2023-09-07T03:44:45;7.47;;;5.37;;
10985;SDS011;5546;48.714;8.738;2023-09-07T03:47:13;6.00;;;5.10;;
10985;SDS011;5546;48.714;8.738;2023-09-07T03:49:39;5.93;;;5.10;;
10985;SDS011;5546;48.714;8.738;2023-09-07T03:52:04;6.13;;;5.07;;
10985;SDS011;5546;48.714;8.738;2023-09-07T03:54:30;8.07;;;5.00;;
10985;SDS011;5546;48.714;8.738;2023-09-07T03:56:56;5.53;;;4.87;;
10985;SDS011;5546;48.714;8.738;2023-09-07T03:59:22;5.93;;;5.20;;
10985;SDS011;5546;48.714;8.738;2023-09-07T04:01:48;6.37;;;5.03;;
10985;SDS011;5546;48.714;8.738;2023-09-07T04:04:13;6.20;;;4.80;;
10985;SDS011;5546;48.714;8.738;2023-09-07T04:06:39;6.97;;;5.53;;
10985;SDS011;5546;48.714;8.738;2023-09-07T04:09:05;7.57;;;5.33;;
10985;SDS011;5546;48.714;8.738;2023-09-07T04:11:30;9.23;;;6.27;;
10985;SDS011;5546;48.714;8.738;2023-09-07T04:13:56;6.30;;;4.67;;
10985;SDS011;5546;48.714;8.738;2023-09-07T04:16:21;7.40;;;5.07;;
10985;SDS011;5546;48.714;8.738;2023-09-07T04:18:46;5.73;;;5.13;;
10985;SDS011;5546;48.714;8.738;2023-09-07T04:21:12;5.87;;;5.30;;
10985;SDS011;5546;48.714;8.738;2023-09-07T04:23:38;7.50;;;5.40;;
10985;SDS011;5546;48.714;8.738;2023-09-07T04:28:33;6.00;;;4.90;;
10985;SDS011;5546;48.714;8.738;2023-09-07T04:30:58;5.73;;;5.03;;
10985;SDS011;5546;48.714;8.738;2023-09-07T04:33:24;6.20;;;4.57;;
10985;SDS011;5546;48.714;8.738;2023-09-07T04:35:49;6.50;;;5.20;;
10985;SDS011;5546;48.714;8.738;2023-09-07T04:38:15;6.43;;;4.90;;
10985;SDS011;5546;48.714;8.738;2023-09-07T04:40:40;6.20;;;5.30;;
10985;SDS011;5546;48.714;8.738;2023-09-07T04:43:06;6.73;;;5.67;;
10985;SDS011;5546;48.714;8.738;2023-09-07T04:45:31;6.37;;;5.60;;
10985;SDS011;5546;48.714;8.738;2023-09-07T04:47:57;5.70;;;5.20;;
10985;SDS011;5546;48.714;8.738;2023-09-07T04:50:22;8.23;;;5.60;;
10985;SDS011;5546;48.714;8.738;2023-09-07T04:52:48;7.50;;;5.77;;
10985;SDS011;5546;48.714;8.738;2023-09-07T04:55:13;6.50;;;5.80;;
10985;SDS011;5546;48.714;8.738;2023-09-07T04:57:39;6.17;;;5.57;;
10985;SDS011;5546;48.714;8.738;2023-09-07T05:00:07;6.47;;;5.00;;
10985;SDS011;5546;48.714;8.738;2023-09-07T05:02:36;8.23;;;5.03;;
10985;SDS011;5546;48.714;8.738;2023-09-07T05:05:05;6.73;;;5.90;;
10985;SDS011;5546;48.714;8.738;2023-09-07T05:07:31;5.70;;;5.07;;
10985;SDS011;5546;48.714;8.738;2023-09-07T05:09:57;6.20;;;5.60;;
10985;SDS011;5546;48.714;8.738;2023-09-07T05:12:22;5.60;;;4.97;;
10985;SDS011;5546;48.714;8.738;2023-09-07T05:14:48;8.47;;;5.30;;
10985;SDS011;5546;48.714;8.738;2023-09-07T05:17:13;5.73;;;4.80;;
10985;SDS011;5546;48.714;8.738;2023-09-07T05:19:39;5.73;;;4.73;;
10985;SDS011;5546;48.714;8.738;2023-09-07T05:22:04;8.50;;;4.87;;
10985;SDS011;5546;48.714;8.738;2023-09-07T05:24:30;6.70;;;5.07;;
10985;SDS011;5546;48.714;8.738;2023-09-07T05:26:55;6.20;;;4.97;;
10985;SDS011;5546;48.714;8.738;2023-09-07T05:29:21;6.50;;;4.67;;
10985;SDS011;5546;48.714;8.738;2023-09-07T05:31:47;7.10;;;5.00;;
10985;SDS011;5546;48.714;8.738;2023-09-07T05:34:13;5.57;;;5.07;;
10985;SDS011;5546;48.714;8.738;2023-09-07T05:36:38;4.93;;;4.53;;
10985;SDS011;5546;48.714;8.738;2023-09-07T05:39:04;7.03;;;4.47;;
10985;SDS011;5546;48.714;8.738;2023-09-07T05:41:29;4.90;;;4.00;;
10985;SDS011;5546;48.714;8.738;2023-09-07T05:43:55;4.40;;;4.00;;
10985;SDS011;5546;48.714;8.738;2023-09-07T05:46:21;4.27;;;3.80;;
10985;SDS011;5546;48.714;8.738;2023-09-07T05:48:46;4.60;;;3.77;;
10985;SDS011;5546;48.714;8.738;2023-09-07T05:51:12;3.70;;;3.40;;
10985;SDS011;5546;48.714;8.738;2023-09-07T05:53:38;6.80;;;3.67;;
10985;SDS011;5546;48.714;8.738;2023-09-07T05:56:04;6.03;;;3.97;;
10985;SDS011;5546;48.714;8.738;2023-09-07T05:58:30;5.27;;;3.57;;
10985;SDS011;5546;48.714;8.738;2023-09-07T06:00:55;7.07;;;4.10;;
10985;SDS011;5546;48.714;8.738;2023-09-07T06:03:21;4.03;;;3.60;;
10985;SDS011;5546;48.714;8.738;2023-09-07T06:05:46;4.80;;;3.20;;
10985;SDS011;5546;48.714;8.738;2023-09-07T06:08:12;3.75;;;3.28;;
10985;SDS011;5546;48.714;8.738;2023-09-07T06:10:37;3.72;;;3.10;;
10985;SDS011;5546;48.714;8.738;2023-09-07T06:13:03;5.93;;;3.40;;
10985;SDS011;5546;48.714;8.738;2023-09-07T06:15:29;4.03;;;3.60;;
10985;SDS011;5546;48.714;8.738;2023-09-07T06:17:54;4.30;;;3.25;;
10985;SDS011;5546;48.714;8.738;2023-09-07T06:20:20;3.95;;;3.53;;
10985;SDS011;5546;48.714;8.738;2023-09-07T06:22:46;4.70;;;3.58;;
10985;SDS011;5546;48.714;8.738;2023-09-07T06:25:11;4.65;;;3.42;;
10985;SDS011;5546;48.714;8.738;2023-09-07T06:27:37;5.05;;;3.33;;
10985;SDS011;5546;48.714;8.738;2023-09-07T06:30:03;4.60;;;3.55;;
10985;SDS011;5546;48.714;8.738;2023-09-07T06:32:32;3.80;;;3.40;;
10985;SDS011;5546;48.714;8.738;2023-09-07T06:34:58;4.10;;;3.45;;
10985;SDS011;5546;48.714;8.738;2023-09-07T06:37:23;5.28;;;2.78;;
10985;SDS011;5546;48.714;8.738;2023-09-07T06:39:49;5.07;;;3.78;;
10985;SDS011;5546;48.714;8.738;2023-09-07T06:42:15;3.53;;;3.10;;
10985;SDS011;5546;48.714;8.738;2023-09-07T06:44:41;4.15;;;3.47;;
10985;SDS011;5546;48.714;8.738;2023-09-07T06:47:08;7.50;;;3.80;;
10985;SDS011;5546;48.714;8.738;2023-09-07T06:49:33;5.20;;;3.67;;
10985;SDS011;5546;48.714;8.738;2023-09-07T06:51:59;3.83;;;3.30;;
10985;SDS011;5546;48.714;8.738;2023-09-07T06:54:25;4.13;;;3.78;;
10985;SDS011;5546;48.714;8.738;2023-09-07T06:56:52;5.57;;;3.88;;
10985;SDS011;5546;48.714;8.738;2023-09-07T06:59:17;5.15;;;3.63;;
10985;SDS011;5546;48.714;8.738;2023-09-07T07:01:43;7.30;;;3.72;;
10985;SDS011;5546;48.714;8.738;2023-09-07T07:04:08;7.32;;;3.45;;
10985;SDS011;5546;48.714;8.738;2023-09-07T07:06:34;4.72;;;3.30;;
10985;SDS011;5546;48.714;8.738;2023-09-07T07:09:00;4.75;;;3.40;;
10985;SDS011;5546;48.714;8.738;2023-09-07T07:11:25;4.53;;;3.67;;
10985;SDS011;5546;48.714;8.738;2023-09-07T07:13:51;3.85;;;3.55;;
10985;SDS011;5546;48.714;8.738;2023-09-07T07:16:16;5.32;;;3.40;;
10985;SDS011;5546;48.714;8.738;2023-09-07T07:18:42;3.40;;;3.10;;
10985;SDS011;5546;48.714;8.738;2023-09-07T07:21:08;3.63;;;3.33;;
10985;SDS011;5546;48.714;8.738;2023-09-07T07:23:34;4.03;;;3.10;;
10985;SDS011;5546;48.714;8.738;2023-09-07T07:26:00;4.68;;;3.05;;
10985;SDS011;5546;48.714;8.738;2023-09-07T07:28:25;3.95;;;3.20;;
10985;SDS011;5546;48.714;8.738;2023-09-07T07:30:51;5.05;;;3.28;;
10985;SDS011;5546;48.714;8.738;2023-09-07T07:33:18;6.40;;;3.10;;
10985;SDS011;5546;48.714;8.738;2023-09-07T07:35:44;3.85;;;3.20;;
10985;SDS011;5546;48.714;8.738;2023-09-07T07:38:10;4.85;;;3.35;;
10985;SDS011;5546;48.714;8.738;2023-09-07T07:40:38;4.03;;;3.03;;
10985;SDS011;5546;48.714;8.738;2023-09-07T07:43:04;3.90;;;2.97;;
10985;SDS011;5546;48.714;8.738;2023-09-07T07:45:29;4.53;;;2.90;;
10985;SDS011;5546;48.714;8.738;2023-09-07T07:47:55;5.13;;;2.90;;
10985;SDS011;5546;48.714;8.738;2023-09-07T07:50:20;5.25;;;3.05;;
10985;SDS011;5546;48.714;8.738;2023-09-07T07:52:46;3.58;;;3.13;;
10985;SDS011;5546;48.714;8.738;2023-09-07T07:55:12;5.88;;;3.30;;
10985;SDS011;5546;48.714;8.738;2023-09-07T07:57:37;3.53;;;3.20;;
10985;SDS011;5546;48.714;8.738;2023-09-07T08:00:04;4.75;;;3.13;;
10985;SDS011;5546;48.714;8.738;2023-09-07T08:02:30;3.50;;;3.20;;
10985;SDS011;5546;48.714;8.738;2023-09-07T08:04:56;5.32;;;3.00;;
10985;SDS011;5546;48.714;8.738;2023-09-07T08:07:22;4.40;;;2.80;;
10985;SDS011;5546;48.714;8.738;2023-09-07T08:09:48;3.85;;;3.55;;
10985;SDS011;5546;48.714;8.738;2023-09-07T08:12:15;4.97;;;3.55;;
10985;SDS011;5546;48.714;8.738;2023-09-07T08:14:41;5.25;;;3.50;;
10985;SDS011;5546;48.714;8.738;2023-09-07T08:17:07;5.38;;;3.42;;
10985;SDS011;5546;48.714;8.738;2023-09-07T08:19:33;4.00;;;3.60;;
10985;SDS011;5546;48.714;8.738;2023-09-07T08:21:59;4.35;;;3.45;;
10985;SDS011;5546;48.714;8.738;2023-09-07T08:24:28;6.25;;;3.13;;
10985;SDS011;5546;48.714;8.738;2023-09-07T08:26:54;4.95;;;3.15;;
10985;SDS011;5546;48.714;8.738;2023-09-07T08:29:20;7.30;;;3.65;;
10985;SDS011;5546;48.714;8.738;2023-09-07T08:31:46;4.07;;;3.38;;
10985;SDS011;5546;48.714;8.738;2023-09-07T08:34:13;5.65;;;3.50;;
10985;SDS011;5546;48.714;8.738;2023-09-07T08:36:44;6.97;;;3.55;;
10985;SDS011;5546;48.714;8.738;2023-09-07T08:39:11;3.88;;;3.55;;
10985;SDS011;5546;48.714;8.738;2023-09-07T08:41:38;4.65;;;3.38;;
10985;SDS011;5546;48.714;8.738;2023-09-07T08:44:08;4.57;;;3.53;;
10985;SDS011;5546;48.714;8.738;2023-09-07T08:46:36;4.47;;;3.60;;
10985;SDS011;5546;48.714;8.738;2023-09-07T08:49:02;3.92;;;3.42;;
10985;SDS011;5546;48.714;8.738;2023-09-07T08:51:29;5.78;;;3.80;;
10985;SDS011;5546;48.714;8.738;2023-09-07T08:53:56;4.80;;;4.30;;
10985;SDS011;5546;48.714;8.738;2023-09-07T08:56:22;5.63;;;3.53;;
10985;SDS011;5546;48.714;8.738;2023-09-07T08:58:48;4.53;;;3.70;;
10985;SDS011;5546;48.714;8.738;2023-09-07T09:01:14;3.65;;;3.35;;
10985;SDS011;5546;48.714;8.738;2023-09-07T09:03:41;4.38;;;3.97;;
10985;SDS011;5546;48.714;8.738;2023-09-07T09:06:08;7.35;;;4.07;;
10985;SDS011;5546;48.714;8.738;2023-09-07T09:11:16;5.47;;;3.92;;
10985;SDS011;5546;48.714;8.738;2023-09-07T09:13:42;4.30;;;4.00;;
10985;SDS011;5546;48.714;8.738;2023-09-07T09:16:11;4.88;;;4.00;;
10985;SDS011;5546;48.714;8.738;2023-09-07T09:18:49;4.55;;;3.88;;
10985;SDS011;5546;48.714;8.738;2023-09-07T09:21:22;6.32;;;3.85;;
10985;SDS011;5546;48.714;8.738;2023-09-07T09:23:50;6.20;;;3.83;;
10985;SDS011;5546;48.714;8.738;2023-09-07T09:26:17;4.95;;;4.35;;
10985;SDS011;5546;48.714;8.738;2023-09-07T09:28:43;4.40;;;4.00;;
10985;SDS011;5546;48.714;8.738;2023-09-07T09:31:12;4.85;;;3.92;;
10985;SDS011;5546;48.714;8.738;2023-09-07T09:33:39;7.13;;;3.97;;
10985;SDS011;5546;48.714;8.738;2023-09-07T09:36:06;4.90;;;3.92;;
10985;SDS011;5546;48.714;8.738;2023-09-07T09:38:32;5.00;;;4.50;;
10985;SDS011;5546;48.714;8.738;2023-09-07T09:40:58;5.22;;;4.00;;
10985;SDS011;5546;48.714;8.738;2023-09-07T09:43:24;5.55;;;3.95;;
10985;SDS011;5546;48.714;8.738;2023-09-07T09:45:50;5.35;;;3.97;;
10985;SDS011;5546;48.714;8.738;2023-09-07T09:48:17;5.53;;;4.20;;
10985;SDS011;5546;48.714;8.738;2023-09-07T09:50:47;4.82;;;4.38;;
10985;SDS011;5546;48.714;8.738;2023-09-07T09:53:17;4.45;;;4.05;;
10985;SDS011;5546;48.714;8.738;2023-09-07T09:55:48;4.47;;;4.07;;
10985;SDS011;5546;48.714;8.738;2023-09-07T09:58:15;6.88;;;4.10;;
10985;SDS011;5546;48.714;8.738;2023-09-07T10:00:45;4.38;;;3.97;;
10985;SDS011;5546;48.714;8.738;2023-09-07T10:03:17;5.45;;;4.55;;
10985;SDS011;5546;48.714;8.738;2023-09-07T10:05:49;5.10;;;4.38;;
10985;SDS011;5546;48.714;8.738;2023-09-07T10:08:17;6.25;;;3.95;;
10985;SDS011;5546;48.714;8.738;2023-09-07T10:10:46;4.97;;;4.47;;
10985;SDS011;5546;48.714;8.738;2023-09-07T10:13:15;4.65;;;4.25;;
10985;SDS011;5546;48.714;8.738;2023-09-07T10:15:59;4.55;;;4.10;;
10985;SDS011;5546;48.714;8.738;2023-09-07T10:18:32;4.53;;;4.13;;
10985;SDS011;5546;48.714;8.738;2023-09-07T10:21:00;4.82;;;4.43;;
10985;SDS011;5546;48.714;8.738;2023-09-07T10:23:37;6.05;;;4.00;;
10985;SDS011;5546;48.714;8.738;2023-09-07T10:26:04;5.72;;;4.60;;
10985;SDS011;5546;48.714;8.738;2023-09-07T10:28:34;7.68;;;4.40;;
10985;SDS011;5546;48.714;8.738;2023-09-07T10:31:06;5.95;;;4.18;;
10985;SDS011;5546;48.714;8.738;2023-09-07T10:33:38;4.60;;;4.30;;
10985;SDS011;5546;48.714;8.738;2023-09-07T10:36:04;4.43;;;4.03;;
10985;SDS011;5546;48.714;8.738;2023-09-07T10:38:31;4.90;;;4.30;;
10985;SDS011;5546;48.714;8.738;2023-09-07T10:41:01;4.75;;;4.13;;
10985;SDS011;5546;48.714;8.738;2023-09-07T10:43:29;4.93;;;4.10;;
10985;SDS011;5546;48.714;8.738;2023-09-07T10:45:56;4.45;;;4.10;;
10985;SDS011;5546;48.714;8.738;2023-09-07T10:48:23;4.60;;;4.22;;
10985;SDS011;5546;48.714;8.738;2023-09-07T10:50:54;5.47;;;4.18;;
10985;SDS011;5546;48.714;8.738;2023-09-07T10:53:30;4.50;;;3.92;;
10985;SDS011;5546;48.714;8.738;2023-09-07T10:55:57;4.93;;;3.90;;
10985;SDS011;5546;48.714;8.738;2023-09-07T10:58:29;5.78;;;4.07;;
10985;SDS011;5546;48.714;8.738;2023-09-07T11:00:56;4.43;;;4.00;;
10985;SDS011;5546;48.714;8.738;2023-09-07T11:03:22;6.32;;;4.30;;
10985;SDS011;5546;48.714;8.738;2023-09-07T11:05:49;5.18;;;4.68;;
10985;SDS011;5546;48.714;8.738;2023-09-07T11:08:16;6.30;;;4.20;;
10985;SDS011;5546;48.714;8.738;2023-09-07T11:10:41;5.00;;;4.05;;
10985;SDS011;5546;48.714;8.738;2023-09-07T11:13:07;5.72;;;4.82;;
10985;SDS011;5546;48.714;8.738;2023-09-07T11:15:34;4.60;;;4.30;;
10985;SDS011;5546;48.714;8.738;2023-09-07T11:18:04;4.43;;;4.03;;
10985;SDS011;5546;48.714;8.738;2023-09-07T11:20:31;4.75;;;4.35;;
10985;SDS011;5546;48.714;8.738;2023-09-07T11:22:57;4.80;;;4.25;;
10985;SDS011;5546;48.714;8.738;2023-09-07T11:25:23;5.13;;;3.97;;
10985;SDS011;5546;48.714;8.738;2023-09-07T11:27:49;6.15;;;4.65;;
10985;SDS011;5546;48.714;8.738;2023-09-07T11:30:19;4.50;;;4.10;;
10985;SDS011;5546;48.714;8.738;2023-09-07T11:32:45;4.80;;;4.30;;
10985;SDS011;5546;48.714;8.738;2023-09-07T11:35:11;6.60;;;4.45;;
10985;SDS011;5546;48.714;8.738;2023-09-07T11:37:37;4.50;;;4.10;;
10985;SDS011;5546;48.714;8.738;2023-09-07T11:40:02;4.80;;;4.38;;
10985;SDS011;5546;48.714;8.738;2023-09-07T11:42:36;7.38;;;4.53;;
10985;SDS011;5546;48.714;8.738;2023-09-07T11:45:01;10.02;;;5.10;;
10985;SDS011;5546;48.714;8.738;2023-09-07T11:47:27;5.05;;;4.55;;
10985;SDS011;5546;48.714;8.738;2023-09-07T11:49:53;7.60;;;4.85;;
10985;SDS011;5546;48.714;8.738;2023-09-07T11:52:18;5.45;;;4.63;;
10985;SDS011;5546;48.714;8.738;2023-09-07T11:54:44;6.10;;;4.68;;
10985;SDS011;5546;48.714;8.738;2023-09-07T11:57:09;5.28;;;4.28;;
10985;SDS011;5546;48.714;8.738;2023-09-07T11:59:35;4.60;;;4.20;;
10985;SDS011;5546;48.714;8.738;2023-09-07T12:02:00;7.25;;;6.32;;
10985;SDS011;5546;48.714;8.738;2023-09-07T12:04:26;4.57;;;4.18;;
10985;SDS011;5546;48.714;8.738;2023-09-07T12:06:51;7.10;;;5.10;;
10985;SDS011;5546;48.714;8.738;2023-09-07T12:09:17;7.07;;;4.78;;
10985;SDS011;5546;48.714;8.738;2023-09-07T12:11:42;6.50;;;4.70;;
10985;SDS011;5546;48.714;8.738;2023-09-07T12:14:08;5.72;;;4.40;;
10985;SDS011;5546;48.714;8.738;2023-09-07T12:16:34;5.03;;;4.53;;
10985;SDS011;5546;48.714;8.738;2023-09-07T12:18:59;5.00;;;4.53;;
10985;SDS011;5546;48.714;8.738;2023-09-07T12:21:25;6.32;;;4.50;;
10985;SDS011;5546;48.714;8.738;2023-09-07T12:23:51;5.05;;;4.55;;
10985;SDS011;5546;48.714;8.738;2023-09-07T12:26:16;5.00;;;4.60;;
10985;SDS011;5546;48.714;8.738;2023-09-07T12:28:44;4.90;;;4.28;;
10985;SDS011;5546;48.714;8.738;2023-09-07T12:31:09;7.95;;;4.47;;
10985;SDS011;5546;48.714;8.738;2023-09-07T12:33:36;5.20;;;4.53;;
10985;SDS011;5546;48.714;8.738;2023-09-07T12:36:02;7.75;;;5.03;;
10985;SDS011;5546;48.714;8.738;2023-09-07T12:38:28;7.03;;;4.45;;
10985;SDS011;5546;48.714;8.738;2023-09-07T12:40:54;4.90;;;4.45;;
10985;SDS011;5546;48.714;8.738;2023-09-07T12:43:20;5.75;;;4.95;;
10985;SDS011;5546;48.714;8.738;2023-09-07T12:45:46;5.22;;;4.53;;
10985;SDS011;5546;48.714;8.738;2023-09-07T12:48:12;5.43;;;4.93;;
10985;SDS011;5546;48.714;8.738;2023-09-07T12:50:37;5.63;;;4.80;;
10985;SDS011;5546;48.714;8.738;2023-09-07T12:53:05;7.00;;;4.65;;
10985;SDS011;5546;48.714;8.738;2023-09-07T12:55:30;4.90;;;4.50;;
10985;SDS011;5546;48.714;8.738;2023-09-07T12:57:56;8.20;;;4.57;;
10985;SDS011;5546;48.714;8.738;2023-09-07T13:00:22;5.05;;;4.55;;
10985;SDS011;5546;48.714;8.738;2023-09-07T13:02:47;4.82;;;4.43;;
10985;SDS011;5546;48.714;8.738;2023-09-07T13:05:13;5.28;;;4.38;;
10985;SDS011;5546;48.714;8.738;2023-09-07T13:07:38;5.05;;;4.60;;
10985;SDS011;5546;48.714;8.738;2023-09-07T13:10:05;5.68;;;4.40;;
10985;SDS011;5546;48.714;8.738;2023-09-07T13:12:31;5.85;;;4.38;;
10985;SDS011;5546;48.714;8.738;2023-09-07T13:14:57;5.32;;;4.70;;
10985;SDS011;5546;48.714;8.738;2023-09-07T13:17:23;9.57;;;6.68;;
10985;SDS011;5546;48.714;8.738;2023-09-07T13:19:48;6.55;;;4.72;;
10985;SDS011;5546;48.714;8.738;2023-09-07T13:22:14;5.72;;;5.10;;
10985;SDS011;5546;48.714;8.738;2023-09-07T13:24:39;6.55;;;4.78;;
10985;SDS011;5546;48.714;8.738;2023-09-07T13:27:05;5.45;;;4.93;;
10985;SDS011;5546;48.714;8.738;2023-09-07T13:29:31;9.38;;;4.68;;
10985;SDS011;5546;48.714;8.738;2023-09-07T13:31:57;7.75;;;5.18;;
10985;SDS011;5546;48.714;8.738;2023-09-07T13:34:23;6.68;;;4.90;;
10985;SDS011;5546;48.714;8.738;2023-09-07T13:36:49;7.15;;;4.75;;
10985;SDS011;5546;48.714;8.738;2023-09-07T13:39:15;4.97;;;4.57;;
10985;SDS011;5546;48.714;8.738;2023-09-07T13:41:40;4.70;;;4.30;;
10985;SDS011;5546;48.714;8.738;2023-09-07T13:44:06;5.18;;;4.78;;
10985;SDS011;5546;48.714;8.738;2023-09-07T13:46:32;7.07;;;4.63;;
10985;SDS011;5546;48.714;8.738;2023-09-07T13:48:58;5.30;;;4.80;;
10985;SDS011;5546;48.714;8.738;2023-09-07T13:51:23;6.72;;;4.13;;
10985;SDS011;5546;48.714;8.738;2023-09-07T13:53:50;4.82;;;4.40;;
10985;SDS011;5546;48.714;8.738;2023-09-07T13:56:16;7.80;;;4.57;;
10985;SDS011;5546;48.714;8.738;2023-09-07T13:58:42;5.20;;;4.70;;
10985;SDS011;5546;48.714;8.738;2023-09-07T14:01:07;6.10;;;4.68;;
10985;SDS011;5546;48.714;8.738;2023-09-07T14:03:33;5.10;;;4.70;;
10985;SDS011;5546;48.714;8.738;2023-09-07T14:05:58;4.75;;;4.35;;
10985;SDS011;5546;48.714;8.738;2023-09-07T14:08:24;7.82;;;5.03;;
10985;SDS011;5546;48.714;8.738;2023-09-07T14:10:50;5.72;;;5.13;;
10985;SDS011;5546;48.714;8.738;2023-09-07T14:13:17;5.72;;;4.78;;
10985;SDS011;5546;48.714;8.738;2023-09-07T14:15:43;4.97;;;4.35;;
10985;SDS011;5546;48.714;8.738;2023-09-07T14:18:09;5.40;;;4.90;;
10985;SDS011;5546;48.714;8.738;2023-09-07T14:20:35;5.88;;;5.20;;
10985;SDS011;5546;48.714;8.738;2023-09-07T14:23:01;6.00;;;5.40;;
10985;SDS011;5546;48.714;8.738;2023-09-07T14:25:27;7.43;;;5.13;;
10985;SDS011;5546;48.714;8.738;2023-09-07T14:27:52;5.60;;;5.10;;
10985;SDS011;5546;48.714;8.738;2023-09-07T14:30:18;6.35;;;4.60;;
10985;SDS011;5546;48.714;8.738;2023-09-07T14:32:44;6.80;;;4.47;;
10985;SDS011;5546;48.714;8.738;2023-09-07T14:35:11;7.10;;;5.18;;
10985;SDS011;5546;48.714;8.738;2023-09-07T14:37:37;6.15;;;4.97;;
10985;SDS011;5546;48.714;8.738;2023-09-07T14:40:03;8.63;;;5.28;;
10985;SDS011;5546;48.714;8.738;2023-09-07T14:42:29;5.40;;;4.90;;
10985;SDS011;5546;48.714;8.738;2023-09-07T14:44:55;5.22;;;4.65;;
10985;SDS011;5546;48.714;8.738;2023-09-07T14:47:22;7.75;;;4.55;;
10985;SDS011;5546;48.714;8.738;2023-09-07T14:49:50;5.30;;;4.80;;
10985;SDS011;5546;48.714;8.738;2023-09-07T14:52:17;8.13;;;5.07;;
10985;SDS011;5546;48.714;8.738;2023-09-07T14:54:43;5.60;;;5.15;;
10985;SDS011;5546;48.714;8.738;2023-09-07T14:57:08;8.70;;;5.53;;
10985;SDS011;5546;48.714;8.738;2023-09-07T14:59:34;5.50;;;4.80;;
10985;SDS011;5546;48.714;8.738;2023-09-07T15:02:00;6.30;;;5.05;;